Airport ICAO


00:48 UTC

0°C

Clear skies


An affordable passengers' Moving Map for your aircraft. Made for the iPad and the iPhone
More information here

LFPV Velizy


Villacoublay FRANCE   VFR CAVOK


METAR LFPV 230030Z AUTO 04010KT CAVOK M00/M07 Q1016 NOSIG 0h18min

TAF LFPV 222000Z 2221/2321 04010KT CAVOK 4h48min





NOTAMS

OPEN